createdAt,value
2022-11-29T00:02:30.070Z,2.33
2022-11-29T00:07:37.084Z,2.38
2022-11-29T00:12:43.278Z,1.92
2022-11-29T00:17:48.501Z,1.77
2022-11-29T00:22:53.398Z,1.70
2022-11-29T00:28:23.050Z,6.57
2022-11-29T00:33:30.802Z,3.25
2022-11-29T00:38:45.025Z,2.38
2022-11-29T00:43:50.185Z,2.03
2022-11-29T00:48:55.993Z,1.60
2022-11-29T00:54:03.273Z,1.50
2022-11-29T00:59:05.464Z,1.50
2022-11-29T01:04:09.691Z,2.00
2022-11-29T01:09:19.443Z,1.73
2022-11-29T01:14:28.157Z,1.55
2022-11-29T01:19:31.495Z,1.20
2022-11-29T01:24:35.957Z,1.40
2022-11-29T01:29:43.511Z,1.50
2022-11-29T01:34:46.982Z,1.70
2022-11-29T01:39:58.814Z,1.58
2022-11-29T01:45:25.281Z,1.50
2022-11-29T01:50:29.624Z,1.48
2022-11-29T01:55:43.461Z,1.30
2022-11-29T02:05:16.507Z,1.40
2022-11-29T02:10:47.894Z,1.55
2022-11-29T02:16:23.892Z,1.60
2022-11-29T02:22:04.195Z,1.50
2022-11-29T02:28:05.524Z,1.40
2022-11-29T02:33:37.779Z,1.55
2022-11-29T02:39:22.095Z,1.30
2022-11-29T02:44:47.956Z,1.55
2022-11-29T02:50:15.331Z,1.20
2022-11-29T02:55:44.393Z,1.50
2022-11-29T03:01:29.224Z,1.23
2022-11-29T03:07:05.284Z,1.50
2022-11-29T03:12:47.336Z,1.10
2022-11-29T03:18:33.110Z,1.60
2022-11-29T03:24:06.076Z,1.40
2022-11-29T03:29:26.117Z,1.43
2022-11-29T03:35:19.537Z,1.80
2022-11-29T03:40:44.769Z,1.67
2022-11-29T03:46:05.950Z,1.58
2022-11-29T03:51:56.067Z,1.60
2022-11-29T03:56:59.795Z,1.60
2022-11-29T04:02:52.104Z,1.30
2022-11-29T04:08:22.349Z,1.00
2022-11-29T04:14:43.938Z,1.17
2022-11-29T04:20:45.440Z,1.30
2022-11-29T04:26:09.870Z,1.20
2022-11-29T04:31:37.528Z,1.02
2022-11-29T04:37:51.864Z,1.00
2022-11-29T04:43:53.404Z,1.30
2022-11-29T04:49:24.583Z,1.00
2022-11-29T04:55:01.828Z,1.00
2022-11-29T05:08:37.090Z,1.50
2022-11-29T05:13:56.488Z,1.45
2022-11-29T05:19:19.353Z,1.48
2022-11-29T05:24:58.913Z,1.65
2022-11-29T05:30:09.396Z,1.27
2022-11-29T05:35:47.846Z,1.63
2022-11-29T05:41:17.507Z,1.75
2022-11-29T05:46:33.060Z,2.25
2022-11-29T05:51:48.914Z,2.88
2022-11-29T05:57:34.277Z,2.42
2022-11-29T06:03:18.472Z,2.38
2022-11-29T06:08:46.433Z,2.22
2022-11-29T06:14:18.093Z,2.60
2022-11-29T06:19:59.656Z,2.10
2022-11-29T06:25:27.583Z,2.20
2022-11-29T06:31:04.068Z,1.98
2022-11-29T06:36:45.127Z,2.10
2022-11-29T06:41:50.349Z,2.58
2022-11-29T06:47:06.411Z,2.05
2022-11-29T06:52:17.291Z,2.28
2022-11-29T06:58:06.393Z,2.53
2022-11-29T07:03:28.076Z,2.33
2022-11-29T07:08:33.626Z,2.45
2022-11-29T07:13:40.009Z,3.05
2022-11-29T07:19:09.080Z,2.88
2022-11-29T07:24:55.973Z,2.53
2022-11-29T07:30:11.938Z,2.38
2022-11-29T07:35:30.873Z,2.40
2022-11-29T07:40:52.099Z,2.13
2022-11-29T07:45:58.601Z,3.00
2022-11-29T07:51:02.346Z,2.45
2022-11-29T07:56:07.696Z,2.65
2022-11-29T08:01:13.111Z,2.78
2022-11-29T08:06:16.952Z,2.90
2022-11-29T08:11:31.002Z,2.90
2022-11-29T08:16:32.933Z,2.67
2022-11-29T08:21:36.177Z,2.35
2022-11-29T08:26:42.850Z,2.45
2022-11-29T08:31:45.658Z,2.22
2022-11-29T08:36:51.882Z,2.47
2022-11-29T08:41:59.275Z,2.28
2022-11-29T08:47:21.251Z,2.38
2022-11-29T08:52:43.340Z,2.30
2022-11-29T08:57:45.554Z,2.75
2022-11-29T09:07:55.770Z,2.70
2022-11-29T09:18:04.254Z,2.03
2022-11-29T09:23:06.814Z,2.17
2022-11-29T09:28:22.364Z,2.53
2022-11-29T09:33:35.556Z,2.45
2022-11-29T09:38:38.445Z,2.75
2022-11-29T09:44:03.234Z,3.03
2022-11-29T09:49:24.120Z,2.70
2022-11-29T09:55:00.517Z,2.97
2022-11-29T10:00:07.738Z,2.30
2022-11-29T10:05:51.490Z,2.53
2022-11-29T10:11:10.106Z,2.35
2022-11-29T10:16:21.389Z,2.30
2022-11-29T10:21:30.019Z,2.10
2022-11-29T10:26:35.619Z,2.33
2022-11-29T10:31:44.131Z,2.10
2022-11-29T10:36:52.967Z,2.03
2022-11-29T10:47:20.350Z,2.38
2022-11-29T10:52:23.547Z,2.00
2022-11-29T10:57:25.749Z,1.90
2022-11-29T11:02:28.329Z,1.85
2022-11-29T11:07:36.258Z,3.20
2022-11-29T11:13:00.360Z,2.22
2022-11-29T11:18:11.254Z,1.80
2022-11-29T11:23:42.723Z,1.70
2022-11-29T11:29:05.316Z,1.88
2022-11-29T11:34:34.239Z,2.13
2022-11-29T11:39:36.416Z,1.60
2022-11-29T11:45:01.209Z,1.38
2022-11-29T11:50:09.434Z,1.70
2022-11-29T11:55:29.953Z,1.70
2022-11-29T12:01:14.028Z,1.65
2022-11-29T12:06:38.260Z,1.50
2022-11-29T12:12:27.390Z,1.45
2022-11-29T12:17:47.436Z,1.50
2022-11-29T12:23:19.637Z,1.40
2022-11-29T12:28:34.222Z,1.70
2022-11-29T12:39:20.363Z,1.45
2022-11-29T12:44:31.123Z,1.58
2022-11-29T12:49:51.676Z,2.10
2022-11-29T12:55:25.090Z,1.67
2022-11-29T13:00:33.970Z,1.70
2022-11-29T13:06:08.220Z,2.28
2022-11-29T13:11:37.328Z,1.90
2022-11-29T13:16:56.303Z,1.70
2022-11-29T13:22:10.393Z,1.33
2022-11-29T13:27:23.329Z,1.50
2022-11-29T13:32:57.249Z,1.35
2022-11-29T13:38:34.872Z,1.30
2022-11-29T13:44:03.306Z,1.30
2022-11-29T13:49:06.129Z,1.30
2022-11-29T13:54:30.886Z,1.35
2022-11-29T13:59:36.069Z,1.55
2022-11-29T14:04:46.254Z,1.38
2022-11-29T14:10:03.934Z,1.50
2022-11-29T14:15:22.607Z,1.50
2022-11-29T14:20:28.584Z,1.15
2022-11-29T14:26:05.551Z,1.20
2022-11-29T14:31:12.491Z,1.42
2022-11-29T14:36:26.350Z,1.35
2022-11-29T14:41:54.224Z,1.20
2022-11-29T14:47:13.458Z,1.20
2022-11-29T14:52:15.324Z,1.88
2022-11-29T14:57:45.155Z,1.48
2022-11-29T15:03:19.026Z,1.20
2022-11-29T15:08:26.896Z,1.10
2022-11-29T15:13:37.431Z,1.45
2022-11-29T15:18:42.300Z,1.65
2022-11-29T15:23:44.682Z,1.52
2022-11-29T15:28:46.913Z,1.00
2022-11-29T15:33:54.846Z,1.00
2022-11-29T15:38:59.343Z,1.40
2022-11-29T15:44:04.674Z,1.55
2022-11-29T15:49:18.183Z,1.70
2022-11-29T15:54:49.576Z,1.23
2022-11-29T15:59:58.241Z,1.20
2022-11-29T16:05:30.279Z,1.75
2022-11-29T16:10:41.821Z,1.13
2022-11-29T16:15:46.150Z,1.65
2022-11-29T16:21:04.343Z,1.60
2022-11-29T16:26:27.403Z,1.58
2022-11-29T16:31:38.795Z,1.63
2022-11-29T16:36:40.792Z,1.57
2022-11-29T16:42:03.791Z,1.40
2022-11-29T16:47:18.154Z,1.27
2022-11-29T16:52:30.119Z,1.50
2022-11-29T16:57:45.367Z,1.80
2022-11-29T17:02:47.566Z,2.40
2022-11-29T17:07:53.757Z,2.17
2022-11-29T17:12:55.857Z,2.63
2022-11-29T17:17:59.188Z,1.95
2022-11-29T17:23:01.701Z,2.10
2022-11-29T17:28:06.593Z,2.20
2022-11-29T17:33:09.693Z,1.90
2022-11-29T17:38:12.239Z,1.67
2022-11-29T17:43:17.895Z,1.90
2022-11-29T17:48:19.872Z,1.80
2022-11-29T17:53:22.004Z,1.98
2022-11-29T17:58:25.357Z,1.85
2022-11-29T18:03:28.803Z,2.20
2022-11-29T18:08:31.795Z,1.90
2022-11-29T18:13:37.042Z,2.58
2022-11-29T18:18:39.680Z,2.40
2022-11-29T18:23:42.950Z,2.17
2022-11-29T18:28:48.118Z,2.47
2022-11-29T18:33:53.996Z,2.75
2022-11-29T18:39:05.933Z,2.45
2022-11-29T18:44:11.271Z,2.60
2022-11-29T18:49:19.067Z,2.70
2022-11-29T18:54:26.421Z,3.10
2022-11-29T18:59:32.185Z,2.72
2022-11-29T19:04:41.791Z,3.03
2022-11-29T19:09:43.863Z,3.45
2022-11-29T19:19:54.362Z,3.42
2022-11-29T19:24:56.776Z,4.35
2022-11-29T19:29:59.638Z,3.78
2022-11-29T19:35:05.284Z,4.47
2022-11-29T19:40:16.324Z,4.78
2022-11-29T19:45:18.511Z,4.35
2022-11-29T19:50:20.550Z,4.55
2022-11-29T19:55:22.976Z,4.70
2022-11-29T20:00:24.961Z,4.70
2022-11-29T20:05:27.293Z,4.85
2022-11-29T20:10:29.501Z,7.70
2022-11-29T20:20:34.483Z,5.13
2022-11-29T20:25:40.491Z,4.80
2022-11-29T20:30:46.243Z,5.45
2022-11-29T20:36:09.681Z,5.78
2022-11-29T20:46:26.162Z,4.43
2022-11-29T20:52:05.459Z,4.57
2022-11-29T20:57:09.046Z,4.65
2022-11-29T21:02:11.106Z,4.40
2022-11-29T21:07:13.090Z,5.38
2022-11-29T21:12:15.732Z,4.97
2022-11-29T21:17:19.614Z,4.80
2022-11-29T21:22:52.894Z,8.25
2022-11-29T21:27:55.376Z,8.15
2022-11-29T21:32:57.570Z,6.72
2022-11-29T21:38:04.074Z,6.70
2022-11-29T21:43:20.729Z,6.30
2022-11-29T21:48:38.576Z,25.02
2022-11-29T21:53:50.804Z,11.32
2022-11-29T21:58:56.821Z,7.35
2022-11-29T22:03:58.864Z,5.80
2022-11-29T22:09:02.932Z,7.40
2022-11-29T22:14:14.316Z,5.10
2022-11-29T22:19:19.726Z,6.13
2022-11-29T22:24:24.277Z,7.10
2022-11-29T22:29:26.318Z,6.82
2022-11-29T22:34:30.308Z,8.35
2022-11-29T22:39:32.347Z,6.43
2022-11-29T22:44:34.401Z,9.60
2022-11-29T22:49:40.207Z,7.57
2022-11-29T22:54:42.587Z,8.32
2022-11-29T22:59:48.438Z,7.70
2022-11-29T23:04:54.474Z,10.32
2022-11-29T23:09:56.598Z,7.30
2022-11-29T23:14:58.838Z,8.35
2022-11-29T23:20:00.925Z,7.22
2022-11-29T23:25:07.275Z,8.75
2022-11-29T23:30:14.560Z,6.25
2022-11-29T23:35:16.480Z,7.18
2022-11-29T23:40:18.869Z,9.15
2022-11-29T23:45:30.150Z,6.13
2022-11-29T23:50:32.301Z,7.78
2022-11-29T23:55:34.218Z,7.85
